Time;durP1;ratioP1;P1;durP2;ratioP2;P2;SDS_P1;SDS_P2;PMS_P1;PMS_P2;Temp;Humidity;BMP_temperature;BMP_pressure;BME280_temperature;BME280_humidity;BME280_pressure;Samples;Min_cycle;Max_cycle;Signal;HPM_P1;HPM_P2
2022/11/23 00:01:33;;;;;;;7.15;2.70;;;;;;;8.38;100.00;99437.72;4984753;28;20052;-54
2022/11/23 00:04:06;;;;;;;7.95;2.88;;;;;;;8.41;100.00;99439.06;4995581;28;20046;-52
2022/11/23 00:06:34;;;;;;;10.55;3.28;;;;;;;8.40;100.00;99438.25;5013153;28;20125;-52
2022/11/23 00:09:01;;;;;;;6.50;2.80;;;;;;;8.40;100.00;99446.41;4995271;28;20389;-53
2022/11/23 00:11:29;;;;;;;7.88;2.70;;;;;;;8.37;100.00;99446.97;4993260;28;20050;-51
2022/11/23 00:13:57;;;;;;;7.43;2.80;;;;;;;8.45;100.00;99448.25;5010553;28;20045;-51
2022/11/23 00:16:26;;;;;;;7.18;2.67;;;;;;;8.46;100.00;99453.38;4995735;28;20092;-52
2022/11/23 00:18:58;;;;;;;9.68;3.35;;;;;;;8.41;100.00;99450.72;5013082;28;20049;-51
2022/11/23 00:21:28;;;;;;;9.00;3.00;;;;;;;8.41;100.00;99450.72;5002863;28;20069;-53
2022/11/23 00:23:59;;;;;;;8.65;2.70;;;;;;;8.45;100.00;99456.41;4984763;28;20054;-53
2022/11/23 00:26:26;;;;;;;9.18;3.10;;;;;;;8.41;100.00;99450.72;5001287;28;20037;-52
2022/11/23 00:28:54;;;;;;;9.40;3.17;;;;;;;8.40;100.00;99454.56;4998971;28;20050;-51
2022/11/23 00:31:26;;;;;;;7.40;2.90;;;;;;;8.37;100.00;99457.81;5008086;28;20034;-52
2022/11/23 00:33:55;;;;;;;11.93;3.03;;;;;;;8.37;100.00;99456.97;4988997;28;20050;-53
2022/11/23 00:36:24;;;;;;;10.52;3.35;;;;;;;8.38;100.00;99461.34;4988275;28;20096;-50
2022/11/23 00:38:56;;;;;;;14.68;3.70;;;;;;;8.36;100.00;99471.66;4991166;28;20057;-53
2022/11/23 00:41:26;;;;;;;10.75;3.53;;;;;;;8.35;100.00;99470.84;4992907;28;20038;-49
2022/11/23 00:43:54;;;;;;;8.80;2.80;;;;;;;8.42;100.00;99465.94;4996593;28;20038;-50
2022/11/23 00:46:23;;;;;;;7.47;2.60;;;;;;;8.41;100.00;99471.63;4992495;28;20058;-52
2022/11/23 00:48:55;;;;;;;8.65;3.10;;;;;;;8.46;100.00;99468.88;4979316;28;20077;-50
2022/11/23 00:51:30;;;;;;;8.25;2.83;;;;;;;8.49;100.00;99476.44;4981117;28;20053;-52
2022/11/23 00:53:59;;;;;;;7.80;3.08;;;;;;;8.45;100.00;99478.13;4989641;28;20041;-49
2022/11/23 00:56:28;;;;;;;10.35;3.25;;;;;;;8.44;100.00;99480.03;5008667;28;20045;-49
2022/11/23 00:58:57;;;;;;;10.07;3.30;;;;;;;8.41;100.00;99479.78;4979269;28;20039;-49
2022/11/23 01:01:28;;;;;;;8.02;3.22;;;;;;;8.40;100.00;99478.97;4990013;28;20516;-52
2022/11/23 01:04:00;;;;;;;10.20;3.20;;;;;;;8.40;100.00;99476.25;4987273;28;20050;-51
2022/11/23 01:06:40;;;;;;;8.05;2.80;;;;;;;8.41;100.00;99480.59;4990661;28;20042;-54
2022/11/23 01:09:13;;;;;;;8.57;2.70;;;;;;;8.41;100.00;99486.00;5012993;28;20061;-50
2022/11/23 01:11:40;;;;;;;10.63;2.78;;;;;;;8.42;100.00;99487.66;5009265;28;20350;-51
2022/11/23 01:14:08;;;;;;;9.52;3.00;;;;;;;8.44;100.00;99482.75;4986189;28;20038;-54
2022/11/23 01:16:40;;;;;;;8.82;2.92;;;;;;;8.45;100.00;99483.53;4963442;28;20046;-50
2022/11/23 01:19:17;;;;;;;8.70;3.05;;;;;;;8.45;100.00;99487.06;4994646;28;20045;-50
2022/11/23 01:21:49;;;;;;;9.57;3.42;;;;;;;8.44;100.00;99488.19;4963386;28;20066;-54
2022/11/23 01:24:19;;;;;;;10.82;3.25;;;;;;;8.46;100.00;99488.66;4984368;28;20050;-53
2022/11/23 01:26:51;;;;;;;9.68;3.20;;;;;;;8.46;100.00;99487.88;4997880;28;20046;-54
2022/11/23 01:29:20;;;;;;;7.63;2.70;;;;;;;8.47;100.00;99500.38;4981765;28;20052;-53
2022/11/23 01:31:48;;;;;;;12.43;3.47;;;;;;;8.45;100.00;99487.06;4963596;28;20042;-53
2022/11/23 01:34:16;;;;;;;7.28;2.97;;;;;;;8.46;100.00;99498.72;5006513;28;20493;-53
2022/11/23 01:36:44;;;;;;;8.82;2.60;;;;;;;8.46;100.00;99491.38;4998465;28;20046;-50
2022/11/23 01:39:12;;;;;;;8.55;2.95;;;;;;;8.49;100.00;99498.97;4983665;28;20501;-51
2022/11/23 01:41:41;;;;;;;9.30;2.88;;;;;;;8.53;100.00;99500.00;5006816;28;20045;-48
2022/11/23 01:44:29;;;;;;;7.18;2.55;;;;;;;8.60;100.00;99499.66;4995547;28;20046;-52
2022/11/23 01:46:59;;;;;;;10.55;3.20;;;;;;;8.55;100.00;99498.94;4994074;28;20117;-55
2022/11/23 01:49:40;;;;;;;9.38;3.00;;;;;;;8.62;100.00;99496.69;5015347;28;20034;-54
2022/11/23 01:52:18;;;;;;;10.25;2.70;;;;;;;8.59;100.00;99497.25;4985797;28;20038;-49
2022/11/23 01:54:52;;;;;;;6.43;2.65;;;;;;;8.57;100.00;99513.03;4977108;28;20057;-55
2022/11/23 01:57:35;;;;;;;9.45;2.92;;;;;;;8.58;100.00;99504.56;4979077;28;20042;-51
2022/11/23 02:00:07;;;;;;;7.53;2.90;;;;;;;8.59;100.00;99517.06;4983133;28;20042;-52
2022/11/23 02:02:50;;;;;;;6.78;2.80;;;;;;;8.58;100.00;99509.19;5015313;28;20440;-52
2022/11/23 02:05:20;;;;;;;7.20;2.72;;;;;;;8.60;100.00;99515.97;4999133;28;20041;-51
2022/11/23 02:07:49;;;;;;;6.35;2.47;;;;;;;8.60;100.00;99515.97;4969555;28;20541;-52
2022/11/23 02:10:17;;;;;;;8.10;2.90;;;;;;;8.63;100.00;99515.38;4977824;28;20042;-53
2022/11/23 02:12:45;;;;;;;9.40;2.83;;;;;;;8.59;100.00;99514.34;4963301;28;20047;-52
2022/11/23 02:15:13;;;;;;;7.35;2.72;;;;;;;8.57;100.00;99524.69;4976643;28;20042;-51
2022/11/23 02:17:42;;;;;;;7.90;2.88;;;;;;;8.55;100.00;99521.44;4973506;28;20126;-51
2022/11/23 02:20:15;;;;;;;8.68;3.28;;;;;;;8.56;100.00;99519.53;4962215;28;20049;-50
2022/11/23 02:22:48;;;;;;;6.25;2.30;;;;;;;8.59;100.00;99527.13;4976954;28;20035;-51
2022/11/23 02:25:44;;;;;;;8.70;2.65;;;;;;;8.56;100.00;99517.63;4975228;28;20059;-52
2022/11/23 02:28:18;;;;;;;9.32;2.75;;;;;;;8.59;100.00;99522.50;4961667;28;20038;-51
2022/11/23 02:30:47;;;;;;;8.80;2.83;;;;;;;8.61;100.00;99522.19;4961263;28;20073;-56
2022/11/23 02:33:15;;;;;;;6.10;2.45;;;;;;;8.67;100.00;99521.88;4964968;28;20049;-51
2022/11/23 02:35:50;;;;;;;7.10;2.63;;;;;;;8.69;100.00;99519.69;4982969;28;20097;-51
2022/11/23 02:38:18;;;;;;;10.02;2.90;;;;;;;8.66;100.00;99524.84;4977152;28;20044;-51
2022/11/23 02:40:46;;;;;;;8.00;2.53;;;;;;;8.68;100.00;99522.66;4982518;28;20035;-52
2022/11/23 02:43:16;;;;;;;8.50;2.90;;;;;;;8.66;100.00;99528.41;4979785;28;20047;-51
2022/11/23 02:45:50;;;;;;;8.38;2.67;;;;;;;8.71;100.00;99530.25;4969312;28;20062;-50
2022/11/23 02:48:18;;;;;;;8.60;2.63;;;;;;;8.68;100.00;99531.66;4979818;28;20034;-54
2022/11/23 02:51:03;;;;;;;9.32;2.85;;;;;;;8.66;100.00;99535.72;4985571;28;20042;-53
2022/11/23 02:53:34;;;;;;;9.15;3.58;;;;;;;8.65;100.00;99532.19;4981869;28;20042;-53
2022/11/23 02:56:02;;;;;;;8.48;2.90;;;;;;;8.66;100.00;99533.84;4982516;28;20054;-53
2022/11/23 02:58:30;;;;;;;10.43;3.03;;;;;;;8.64;100.00;99533.31;4976259;28;20118;-53
2022/11/23 03:00:57;;;;;;;7.22;2.63;;;;;;;8.63;100.00;99537.09;4974424;28;20042;-52
2022/11/23 03:03:25;;;;;;;7.35;2.60;;;;;;;8.65;100.00;99534.91;4970969;28;20437;-53
2022/11/23 03:05:52;;;;;;;10.35;3.13;;;;;;;8.65;100.00;99540.34;4975006;28;20457;-53
2022/11/23 03:08:23;;;;;;;10.80;3.28;;;;;;;8.62;100.00;99529.25;4976330;28;20385;-52
2022/11/23 03:10:50;;;;;;;8.98;3.00;;;;;;;8.59;100.00;99538.00;4974250;28;20113;-54
2022/11/23 03:13:19;;;;;;;11.82;3.30;;;;;;;8.59;100.00;99535.28;4983196;28;20061;-52
2022/11/23 03:15:47;;;;;;;10.80;3.33;;;;;;;8.57;100.00;99532.03;5001020;28;20042;-51
2022/11/23 03:18:14;;;;;;;10.77;3.17;;;;;;;8.57;100.00;99532.03;4982046;28;20051;-52
2022/11/23 03:20:42;;;;;;;11.60;3.42;;;;;;;8.59;100.00;99535.28;4970664;28;20042;-55
2022/11/23 03:23:10;;;;;;;11.93;3.47;;;;;;;8.65;100.00;99534.09;4966416;28;20043;-54
2022/11/23 03:25:39;;;;;;;9.23;3.15;;;;;;;8.65;100.00;99534.91;4973577;28;20100;-55
2022/11/23 03:28:06;;;;;;;10.48;3.15;;;;;;;8.69;100.00;99530.53;4975537;28;20061;-52
2022/11/23 03:30:34;;;;;;;10.43;2.90;;;;;;;8.71;100.00;99539.22;4962759;28;20493;-50
2022/11/23 03:33:04;;;;;;;8.77;2.53;;;;;;;8.70;100.00;99544.91;4967600;28;20044;-55
2022/11/23 03:35:32;;;;;;;12.80;4.13;;;;;;;8.67;100.00;99546.31;4975585;28;20045;-53
2022/11/23 03:38:19;;;;;;;9.85;3.05;;;;;;;8.65;100.00;99539.53;4964817;28;20038;-53
2022/11/23 03:40:47;;;;;;;14.68;3.30;;;;;;;8.61;100.00;99543.91;4976163;28;20038;-52
2022/11/23 03:43:21;;;;;;;10.45;3.10;;;;;;;8.60;100.00;99545.03;4967217;28;20101;-49
2022/11/23 03:45:49;;;;;;;9.10;2.75;;;;;;;8.58;100.00;99541.78;4973814;28;20552;-50
2022/11/23 03:48:17;;;;;;;10.30;3.10;;;;;;;8.59;100.00;99546.13;4993596;28;20440;-50
2022/11/23 03:50:45;;;;;;;10.02;3.03;;;;;;;8.59;100.00;99552.38;4976050;28;20058;-53
2022/11/23 03:53:13;;;;;;;8.90;3.10;;;;;;;8.61;100.00;99549.34;4975727;28;20041;-53
2022/11/23 03:55:40;;;;;;;9.25;2.90;;;;;;;8.59;100.00;99552.38;4987770;28;20046;-50
2022/11/23 03:58:08;;;;;;;9.38;3.20;;;;;;;8.61;100.00;99550.19;4975769;28;20515;-51
2022/11/23 04:00:36;;;;;;;8.75;3.25;;;;;;;8.63;100.00;99555.31;4976005;28;20125;-49
2022/11/23 04:03:04;;;;;;;11.13;3.10;;;;;;;8.61;100.00;99555.59;4973937;28;20046;-50
2022/11/23 04:05:50;;;;;;;;;;;;;;;8.60;100.00;99555.88;4984078;28;20031;-48
2022/11/23 04:08:54;;;;;;;12.38;3.72;;;;;;;8.61;100.00;99555.59;4991637;28;19933;-52
2022/11/23 04:11:48;;;;;;;10.77;2.90;;;;;;;8.62;100.00;99545.56;4972211;28;20548;-54
2022/11/23 04:14:16;;;;;;;6.78;2.58;;;;;;;8.61;100.00;99550.19;4964286;28;20066;-54
2022/11/23 04:16:44;;;;;;;8.70;2.72;;;;;;;8.60;100.00;99547.75;4973930;28;20049;-53
2022/11/23 04:19:11;;;;;;;9.10;3.00;;;;;;;8.60;100.00;99543.09;4979430;28;20042;-52
2022/11/23 04:21:39;;;;;;;9.70;2.75;;;;;;;8.61;100.00;99549.34;4985717;28;20070;-52
2022/11/23 04:24:08;;;;;;;9.68;2.92;;;;;;;8.60;100.00;99555.88;4963474;28;20138;-55
2022/11/23 04:26:36;;;;;;;9.38;3.20;;;;;;;8.61;100.00;99554.78;4994205;28;20061;-51
2022/11/23 04:29:04;;;;;;;7.88;2.92;;;;;;;8.61;100.00;99547.47;4976113;28;20075;-52
2022/11/23 04:31:34;;;;;;;11.88;3.30;;;;;;;8.58;100.00;99549.94;4970058;28;20046;-51
2022/11/23 04:34:28;;;;;;;9.70;2.95;;;;;;;8.59;100.00;99551.56;4973212;28;20050;-52
2022/11/23 04:36:55;;;;;;;10.88;3.22;;;;;;;8.61;100.00;99554.78;4983467;28;20089;-56
2022/11/23 04:39:31;;;;;;;9.97;2.77;;;;;;;8.59;100.00;99562.41;5007103;28;20503;-50
2022/11/23 04:42:12;;;;;;;10.00;3.17;;;;;;;8.58;100.00;99561.59;5017286;28;20535;-51
2022/11/23 04:44:44;;;;;;;9.77;2.90;;;;;;;8.58;100.00;99549.94;4984098;28;20037;-51
2022/11/23 04:47:12;;;;;;;11.23;3.33;;;;;;;8.59;100.00;99552.38;4999087;28;20088;-52
2022/11/23 04:49:43;;;;;;;8.85;3.15;;;;;;;8.61;100.00;99554.78;4982854;28;20092;-55
2022/11/23 04:52:11;;;;;;;11.95;3.50;;;;;;;8.63;100.00;99555.31;4983770;28;20133;-51
2022/11/23 04:54:44;;;;;;;12.82;3.53;;;;;;;8.62;100.00;99556.41;4999226;28;20042;-51
2022/11/23 04:57:12;;;;;;;9.80;2.97;;;;;;;8.71;100.00;99551.97;4986816;28;20083;-52
2022/11/23 04:59:40;;;;;;;9.35;3.20;;;;;;;8.68;100.00;99544.38;4980439;28;20039;-52
2022/11/23 05:02:09;;;;;;;11.40;3.30;;;;;;;8.69;100.00;99548.75;5012250;28;20045;-54
2022/11/23 05:04:53;;;;;;;12.80;3.20;;;;;;;8.67;100.00;99549.00;4998554;28;20574;-51
2022/11/23 05:07:25;;;;;;;10.93;3.60;;;;;;;8.65;100.00;99544.97;5015003;28;20053;-52
2022/11/23 05:09:57;;;;;;;9.95;2.95;;;;;;;8.65;100.00;99536.81;4982380;28;20042;-52
2022/11/23 05:12:26;;;;;;;10.68;3.30;;;;;;;8.67;100.00;99542.78;4998523;28;20048;-50
2022/11/23 05:14:56;;;;;;;9.32;2.97;;;;;;;8.63;100.00;99541.72;5001474;28;20122;-50
2022/11/23 05:17:33;;;;;;;7.55;2.58;;;;;;;8.67;100.00;99545.50;4977449;28;20493;-52
2022/11/23 05:20:01;;;;;;;12.40;3.28;;;;;;;8.68;100.00;99547.09;4972011;28;20042;-52
2022/11/23 05:22:33;;;;;;;12.05;3.58;;;;;;;8.69;100.00;99546.03;4963438;28;20573;-52
2022/11/23 05:25:01;;;;;;;11.85;3.33;;;;;;;8.69;100.00;99552.25;4984262;28;20110;-51
2022/11/23 05:27:32;;;;;;;17.38;3.70;;;;;;;8.69;100.00;99548.75;4969392;28;20039;-51
2022/11/23 05:29:59;;;;;;;11.45;3.10;;;;;;;8.67;100.00;99550.94;4968920;28;20046;-51
2022/11/23 05:32:27;;;;;;;11.88;3.35;;;;;;;8.67;100.00;99553.66;4963455;28;20508;-54
2022/11/23 05:34:56;;;;;;;11.65;3.47;;;;;;;8.73;100.00;99564.19;4948327;28;20049;-56
2022/11/23 05:37:27;;;;;;;11.90;3.78;;;;;;;8.72;100.00;99556.31;4997583;28;20037;-55
2022/11/23 05:40:04;;;;;;;14.60;3.75;;;;;;;8.72;100.00;99556.31;4995278;28;20228;-53
2022/11/23 05:42:32;;;;;;;14.15;3.80;;;;;;;8.68;100.00;99553.38;4977902;28;20062;-54
2022/11/23 05:45:08;;;;;;;13.45;3.72;;;;;;;8.69;100.00;99562.31;4969442;28;20039;-52
2022/11/23 05:47:42;;;;;;;12.75;4.15;;;;;;;8.64;100.00;99560.47;4994148;28;20073;-53
2022/11/23 05:50:23;;;;;;;13.27;3.75;;;;;;;8.61;100.00;99562.91;4995735;28;20100;-53
2022/11/23 05:53:11;;;;;;;12.52;3.92;;;;;;;8.60;100.00;99569.47;5006398;28;20060;-52
2022/11/23 05:55:38;;;;;;;13.65;4.35;;;;;;;8.59;100.00;99568.66;4975269;28;20056;-53
2022/11/23 05:58:07;;;;;;;12.38;3.97;;;;;;;8.60;100.00;99564.03;4977953;28;20501;-50
2022/11/23 06:00:38;;;;;;;11.18;3.58;;;;;;;8.65;100.00;99559.34;4997737;28;20033;-51
2022/11/23 06:03:11;;;;;;;12.68;4.75;;;;;;;8.80;100.00;99557.59;4994367;28;20125;-50
2022/11/23 06:05:39;;;;;;;23.17;6.80;;;;;;;8.71;100.00;99554.69;4990799;28;20065;-53
2022/11/23 06:08:08;;;;;;;10.73;4.03;;;;;;;8.79;100.00;99561.41;4966413;28;20057;-49
2022/11/23 06:10:35;;;;;;;11.55;3.85;;;;;;;8.72;100.00;99556.31;4996297;28;20045;-51
2022/11/23 06:13:04;;;;;;;12.52;4.10;;;;;;;8.77;100.00;99558.97;4998111;28;20373;-51
2022/11/23 06:15:33;;;;;;;11.70;3.78;;;;;;;8.77;100.00;99558.97;4978881;28;20040;-51
2022/11/23 06:18:02;;;;;;;17.52;4.85;;;;;;;8.70;100.00;99559.28;4972271;28;20050;-48
2022/11/23 06:20:41;;;;;;;14.48;4.30;;;;;;;8.69;100.00;99567.75;4971880;28;20046;-49
2022/11/23 06:23:14;;;;;;;13.90;3.72;;;;;;;8.73;100.00;99558.75;4974559;28;20051;-53
2022/11/23 06:25:58;;;;;;;12.25;3.65;;;;;;;8.89;100.00;99564.00;4743941;28;10000649;-50
2022/11/23 06:28:27;;;;;;;16.98;4.63;;;;;;;8.88;100.00;99565.91;4958017;28;20267;-52
2022/11/23 06:31:05;;;;;;;7.85;3.03;;;;;;;8.91;100.00;99569.97;4974312;28;20057;-53
2022/11/23 06:33:34;;;;;;;12.63;4.22;;;;;;;8.86;100.00;99567.31;4940431;28;20062;-51
2022/11/23 06:36:03;;;;;;;12.82;4.32;;;;;;;8.84;100.00;99573.00;4952706;28;20042;-48
2022/11/23 06:38:36;;;;;;;10.77;3.53;;;;;;;8.87;100.00;99572.44;4950057;28;20452;-48
2022/11/23 06:41:11;;;;;;;10.73;3.58;;;;;;;8.82;100.00;99563.53;4973386;28;20061;-50
2022/11/23 06:43:39;;;;;;;13.77;3.83;;;;;;;8.88;100.00;99575.97;4981499;28;20756;-50
2022/11/23 06:46:07;;;;;;;11.93;3.65;;;;;;;8.82;100.00;99572.50;4967924;28;20065;-48
2022/11/23 06:48:41;;;;;;;13.25;3.95;;;;;;;8.73;100.00;99568.78;4963435;28;20169;-48
2022/11/23 06:51:10;;;;;;;15.70;4.40;;;;;;;8.69;100.00;99578.59;4974219;28;20043;-51
2022/11/23 06:53:38;;;;;;;8.70;2.92;;;;;;;8.69;100.00;99584.03;4964172;28;20038;-47
2022/11/23 06:56:08;;;;;;;8.98;2.97;;;;;;;8.72;100.00;99584.25;4972971;28;20065;-47
2022/11/23 06:58:36;;;;;;;11.60;3.72;;;;;;;8.78;100.00;99592.34;4976319;28;20096;-47
2022/11/23 07:01:09;;;;;;;14.50;3.72;;;;;;;8.92;100.00;99594.13;4967700;28;20046;-50
2022/11/23 07:03:43;;;;;;;13.43;3.53;;;;;;;8.94;100.00;99591.91;4941962;28;20035;-50
2022/11/23 07:06:21;;;;;;;11.70;3.67;;;;;;;8.91;100.00;99592.50;4960612;28;20057;-52
2022/11/23 07:08:54;;;;;;;13.68;4.03;;;;;;;8.88;100.00;99600.44;4971949;28;20453;-51
2022/11/23 07:11:31;;;;;;;12.30;3.92;;;;;;;8.77;100.00;99597.00;4982213;28;20049;-51
2022/11/23 07:14:00;;;;;;;10.52;3.40;;;;;;;8.74;100.00;99608.44;4968554;28;20065;-51
2022/11/23 07:16:30;;;;;;;10.73;3.30;;;;;;;8.87;100.00;99613.19;4982483;28;20093;-51
2022/11/23 07:18:58;;;;;;;11.52;3.72;;;;;;;8.86;100.00;99608.06;4970052;28;20043;-51
2022/11/23 07:21:25;;;;;;;11.50;3.40;;;;;;;8.89;100.00;99621.84;4989970;28;20051;-50
2022/11/23 07:23:54;;;;;;;11.70;3.50;;;;;;;8.89;100.00;99616.41;4984997;28;20112;-50
2022/11/23 07:26:22;;;;;;;10.07;3.15;;;;;;;9.05;100.00;99621.72;4972004;28;20038;-50
2022/11/23 07:28:49;;;;;;;9.93;3.10;;;;;;;9.04;100.00;99628.25;4976391;28;20445;-53
2022/11/23 07:31:17;;;;;;;11.50;3.70;;;;;;;9.11;100.00;99626.00;4984728;28;20043;-55
2022/11/23 07:33:46;;;;;;;7.72;2.60;;;;;;;9.13;100.00;99627.31;4981609;28;20109;-53
2022/11/23 07:36:13;;;;;;;14.20;3.80;;;;;;;8.95;100.00;99639.75;4974370;28;20442;-50
2022/11/23 07:38:44;;;;;;;15.48;4.07;;;;;;;8.80;100.00;99634.44;4968235;28;20133;-51
2022/11/23 07:41:15;;;;;;;12.57;3.42;;;;;;;8.74;100.00;99635.59;4976253;28;20049;-52
2022/11/23 07:43:55;;;;;;;14.30;4.32;;;;;;;8.66;100.00;99633.47;4976058;28;20129;-53
2022/11/23 07:46:22;;;;;;;13.63;3.90;;;;;;;8.61;100.00;99641.66;4975595;28;20118;-52
2022/11/23 07:48:50;;;;;;;14.73;4.63;;;;;;;8.59;100.00;99641.97;4967206;28;20129;-50
2022/11/23 07:51:18;;;;;;;12.43;3.28;;;;;;;8.60;100.00;99640.84;4987661;28;20093;-51
2022/11/23 07:53:46;;;;;;;17.40;4.05;;;;;;;8.63;100.00;99644.91;4966151;28;20042;-51
2022/11/23 07:56:14;;;;;;;11.43;3.45;;;;;;;8.61;100.00;99652.50;4977799;28;20074;-52
2022/11/23 07:58:41;;;;;;;16.00;4.15;;;;;;;8.62;100.00;99654.16;4974364;28;20043;-52
2022/11/23 08:01:13;;;;;;;12.73;3.75;;;;;;;8.61;100.00;99657.94;4983293;28;20045;-51
2022/11/23 08:03:40;;;;;;;26.17;7.95;;;;;;;9.18;100.00;99650.91;4974051;28;20095;-52
2022/11/23 08:06:12;;;;;;;33.60;8.45;;;;;;;9.15;100.00;99651.50;4972771;28;20047;-51
2022/11/23 08:08:41;;;;;;;20.98;5.90;;;;;;;9.15;100.00;99651.50;4973943;28;20043;-51
2022/11/23 08:11:09;;;;;;;18.30;4.78;;;;;;;9.01;100.00;99653.28;4970293;28;20050;-51
2022/11/23 08:13:37;;;;;;;16.77;5.18;;;;;;;8.99;100.00;99658.19;4958066;28;20047;-53
2022/11/23 08:16:05;;;;;;;17.23;5.13;;;;;;;9.16;100.00;99658.53;4973817;28;20200;-56
2022/11/23 08:18:32;;;;;;;16.98;4.88;;;;;;;9.22;100.00;99657.41;4973923;28;20396;-51
2022/11/23 08:21:00;;;;;;;18.00;5.13;;;;;;;9.33;100.00;99664.38;4975159;28;20054;-51
2022/11/23 08:23:28;;;;;;;18.23;4.50;;;;;;;9.22;100.00;99656.59;4964550;28;20065;-54
2022/11/23 08:25:56;;;;;;;11.48;4.40;;;;;;;9.26;100.00;99665.78;4973754;28;20090;-54
2022/11/23 08:28:23;;;;;;;15.40;4.30;;;;;;;9.02;100.00;99666.59;4973759;28;20718;-50
2022/11/23 08:30:51;;;;;;;14.82;4.63;;;;;;;8.91;100.00;99671.28;4984798;28;20047;-50
2022/11/23 08:33:18;;;;;;;27.02;7.07;;;;;;;9.02;100.00;99665.75;4976147;28;20053;-52
2022/11/23 08:35:46;;;;;;;20.30;6.18;;;;;;;9.04;100.00;99666.28;4978575;28;20078;-52
2022/11/23 08:38:13;;;;;;;23.15;7.07;;;;;;;9.04;100.00;99666.28;4984062;28;20051;-50
2022/11/23 08:40:41;;;;;;;19.38;5.18;;;;;;;9.03;100.00;99664.66;4983381;28;20050;-51
2022/11/23 08:43:09;;;;;;;21.02;6.25;;;;;;;9.30;100.00;99664.13;4994488;28;20045;-54
2022/11/23 08:45:36;;;;;;;19.85;5.97;;;;;;;9.49;100.00;99672.34;5012302;28;20041;-53
2022/11/23 08:48:04;;;;;;;15.20;4.85;;;;;;;9.32;100.00;99664.66;5000510;28;20129;-51
2022/11/23 08:50:43;;;;;;;16.75;4.85;;;;;;;9.50;100.00;99672.06;4997814;28;20042;-53
2022/11/23 08:53:10;;;;;;;17.02;5.18;;;;;;;9.77;100.00;99674.19;5000168;28;20571;-51
2022/11/23 08:55:38;;;;;;;18.05;4.40;;;;;;;9.80;100.00;99668.16;4981365;28;20046;-53
2022/11/23 08:58:07;;;;;;;16.80;4.95;;;;;;;9.97;100.00;99675.03;4999862;28;20050;-54
2022/11/23 09:00:39;;;;;;;16.15;4.70;;;;;;;9.80;100.00;99670.88;4971173;28;20051;-51
2022/11/23 09:03:07;;;;;;;14.93;4.20;;;;;;;9.90;100.00;99669.13;5000430;28;20073;-50
2022/11/23 09:05:37;;;;;;;17.02;4.13;;;;;;;9.67;100.00;99665.31;5007565;28;20037;-54
2022/11/23 09:08:05;;;;;;;12.73;3.90;;;;;;;9.81;100.00;99664.34;4964052;28;20042;-51
2022/11/23 09:10:33;;;;;;;13.57;4.10;;;;;;;9.48;100.00;99654.44;5012618;28;20385;-50
2022/11/23 09:13:00;;;;;;;11.07;3.67;;;;;;;9.96;100.00;99659.81;4998738;28;20050;-52
2022/11/23 09:15:28;;;;;;;11.13;3.65;;;;;;;9.95;100.00;99666.34;5008393;28;20457;-52
2022/11/23 09:17:56;;;;;;;14.65;4.85;;;;;;;10.53;100.00;99657.91;4971269;28;20129;-51
2022/11/23 09:20:24;;;;;;;10.07;3.88;;;;;;;10.35;100.00;99661.47;4976800;28;20042;-52
2022/11/23 09:22:53;;;;;;;9.45;3.72;;;;;;;9.94;100.00;99665.53;4981000;28;20062;-50
2022/11/23 09:25:21;;;;;;;10.35;3.65;;;;;;;9.78;100.00;99655.94;4985082;28;20072;-49
2022/11/23 09:27:52;;;;;;;14.50;4.60;;;;;;;9.96;100.00;99648.94;4970355;28;20110;-51
2022/11/23 09:30:20;;;;;;;11.38;4.07;;;;;;;10.35;100.00;99650.59;4977506;28;20046;-52
2022/11/23 09:32:47;;;;;;;10.80;3.75;;;;;;;10.11;100.00;99646.00;4986822;28;20486;-52
2022/11/23 09:35:15;;;;;;;14.07;4.32;;;;;;;10.00;100.00;99647.22;4985915;28;20120;-53
2022/11/23 09:37:43;;;;;;;11.15;3.60;;;;;;;9.95;100.00;99647.28;4982831;28;20490;-52
2022/11/23 09:40:16;;;;;;;13.70;4.10;;;;;;;9.67;100.00;99651.72;4987418;28;20089;-53
2022/11/23 09:43:14;;;;;;;14.27;4.07;;;;;;;9.68;100.00;99645.22;4987028;28;20048;-53
2022/11/23 09:45:47;;;;;;;15.00;5.20;;;;;;;9.25;100.00;99645.16;4998040;28;20133;-52
2022/11/23 09:48:33;;;;;;;14.95;4.10;;;;;;;9.35;100.00;99640.41;4996120;28;20038;-53
2022/11/23 09:51:19;;;;;;;14.27;4.05;;;;;;;9.43;100.00;99640.88;5008002;28;20056;-53
2022/11/23 09:53:54;;;;;;;11.18;3.58;;;;;;;9.44;100.00;99631.63;4993163;28;20439;-51
2022/11/23 09:56:33;;;;;;;14.88;4.25;;;;;;;9.35;100.00;99632.25;4995472;28;20034;-54
2022/11/23 09:59:17;;;;;;;13.02;4.10;;;;;;;9.50;100.00;99631.28;4977905;28;20505;-51
2022/11/23 10:01:44;;;;;;;12.20;3.45;;;;;;;9.82;100.00;99622.44;4978127;28;20042;-55
2022/11/23 10:04:19;;;;;;;12.35;3.85;;;;;;;9.48;100.00;99629.94;4979728;28;20073;-55
2022/11/23 10:06:52;;;;;;;13.25;3.67;;;;;;;9.26;100.00;99620.41;5003848;28;20100;-54
2022/11/23 10:09:31;;;;;;;11.90;3.70;;;;;;;9.04;100.00;99617.38;4976437;28;20054;-52
2022/11/23 10:12:18;;;;;;;12.18;3.75;;;;;;;9.21;100.00;99604.13;4995788;28;20042;-53
2022/11/23 10:14:57;;;;;;;9.95;3.47;;;;;;;9.22;100.00;99603.06;5014494;28;20053;-52
2022/11/23 10:18:04;;;;;;;11.38;3.63;;;;;;;9.25;100.00;99601.66;4976405;28;20397;-51
2022/11/23 10:20:49;;;;;;;15.60;3.85;;;;;;;9.23;100.00;99601.94;4982838;28;20038;-51
2022/11/23 10:23:37;;;;;;;11.75;3.35;;;;;;;9.63;100.00;99591.69;4970058;28;20101;-54
2022/11/23 10:26:11;;;;;;;11.30;3.53;;;;;;;9.62;100.00;99581.09;4976377;28;20065;-51
2022/11/23 10:28:39;;;;;;;11.50;3.72;;;;;;;9.50;100.00;99586.94;4977788;28;20046;-50
2022/11/23 10:31:14;;;;;;;17.08;4.03;;;;;;;9.24;100.00;99584.56;4973657;28;20058;-52
2022/11/23 10:34:03;;;;;;;9.02;3.05;;;;;;;9.15;100.00;99583.56;4979641;28;20134;-51
2022/11/23 10:36:35;;;;;;;17.77;4.30;;;;;;;9.39;100.00;99584.38;4971674;28;20041;-50
2022/11/23 10:39:26;;;;;;;13.23;3.40;;;;;;;9.20;100.00;99585.41;4978906;28;20045;-50
2022/11/23 10:41:59;;;;;;;15.70;3.80;;;;;;;9.19;100.00;99590.06;4958910;28;20080;-50
2022/11/23 10:44:37;;;;;;;10.70;3.42;;;;;;;9.15;100.00;99594.44;4973647;28;20035;-48
2022/11/23 10:47:04;;;;;;;11.80;3.65;;;;;;;9.04;99.80;99576.63;4984104;28;20118;-48
2022/11/23 10:49:33;;;;;;;36.38;5.97;;;;;;;9.54;100.00;99574.41;4974963;28;20569;-50
2022/11/23 10:52:07;;;;;;;75.20;8.88;;;;;;;9.94;100.00;99572.22;4974227;28;20390;-50
2022/11/23 10:54:46;;;;;;;29.00;4.70;;;;;;;9.90;100.00;99579.34;4975356;28;20441;-50
2022/11/23 10:57:35;;;;;;;10.98;3.65;;;;;;;9.57;100.00;99577.34;4968716;28;20413;-51
2022/11/23 11:00:12;;;;;;;28.38;4.80;;;;;;;9.43;100.00;99581.88;4976862;28;20046;-51
2022/11/23 11:02:45;;;;;;;18.48;3.95;;;;;;;9.56;100.00;99566.75;4972576;28;20050;-53
2022/11/23 11:05:32;;;;;;;23.52;3.85;;;;;;;9.43;98.81;99564.75;4980177;28;20057;-54
2022/11/23 11:08:21;;;;;;;80.35;9.88;;;;;;;9.64;100.00;99560.66;4974833;28;20118;-50
2022/11/23 11:10:55;;;;;;;72.18;8.77;;;;;;;10.07;100.00;99559.78;4976351;28;20034;-54
2022/11/23 11:13:24;;;;;;;22.10;4.70;;;;;;;9.97;100.00;99558.03;4984116;28;20054;-52
2022/11/23 11:15:54;;;;;;;42.95;5.72;;;;;;;10.00;100.00;99555.50;4975007;28;20401;-53
2022/11/23 11:18:27;;;;;;;12.30;3.80;;;;;;;9.63;99.06;99548.19;4986507;28;20050;-51
2022/11/23 11:20:58;;;;;;;13.10;3.78;;;;;;;9.50;99.65;99554.31;4989598;28;20046;-54
2022/11/23 11:23:25;;;;;;;38.08;7.90;;;;;;;9.85;100.00;99555.75;4981017;28;20470;-51
2022/11/23 11:26:03;;;;;;;60.47;10.40;;;;;;;9.90;100.00;99552.16;4973744;28;20050;-54
2022/11/23 11:28:55;;;;;;;56.17;9.63;;;;;;;10.23;100.00;99545.63;4971218;28;20106;-53
2022/11/23 11:31:55;;;;;;;57.28;10.07;;;;;;;10.74;100.00;99535.00;4975590;28;20071;-56
2022/11/23 11:34:52;;;;;;;46.13;8.00;;;;;;;10.46;100.00;99543.09;4959441;28;20043;-50
2022/11/23 11:37:38;;;;;;;64.18;10.15;;;;;;;10.34;100.00;99534.59;5002915;28;20046;-50
2022/11/23 11:40:15;;;;;;;12.85;3.20;;;;;;;10.27;100.00;99536.88;4976053;28;20034;-51
2022/11/23 11:42:57;;;;;;;53.83;8.80;;;;;;;10.32;100.00;99542.25;4974954;28;20034;-50
2022/11/23 11:45:28;;;;;;;44.80;9.52;;;;;;;10.48;100.00;99529.19;4999800;28;20043;-52
2022/11/23 11:48:08;;;;;;;25.40;6.15;;;;;;;10.32;100.00;99528.63;4281080;28;10000302;-52
2022/11/23 11:50:46;;;;;;;24.45;5.45;;;;;;;10.04;99.24;99523.09;4996918;28;20038;-54